X  Κλείσε Στοιχεία αεροπορικών μετεωρολογικών δεδομένων METAR     LGRX Patras Araxos Agamemnon Airport
Θερμοκρασία
46°F Θερμοκρασία
43°F Σημείο δρόσου
87% Υγρασία



Άνεμος
7 MPH
11 KM/H
3 M/S
6 KTS



20°
ΒΒΑ
Τρέχουσες Συνθήκες

Μερικώς Νεφελώδης Μερικώς Νεφελώδης
Πίεση 1023.92 (hPa) - 30.24 (inHg)
Ορατότητα 6.2 (μίλια) - 10 (km)
Aεροδρόμιο
Κωδικός Αεροδρομίου LGRX

Τοποθεσία: Patras Araxos Agamemnon Airport
Απόσταση: 108 (mi)

Metar:
LGRX 030920Z 02006KT 9999 FEW020TCU SCT025 BKN080 08/06 Q1024

ώρα: 03-02-2023 11:20 EET